Time;durP1;ratioP1;P1;durP2;ratioP2;P2;SDS_P1;SDS_P2;PMS_P1;PMS_P2;Temp;Humidity;BMP_temperature;BMP_pressure;BME280_temperature;BME280_humidity;BME280_pressure;Samples;Min_cycle;Max_cycle;Signal;HPM_P1;HPM_P2
2022/11/04 00:01:44;;;;;;;2.72;2.53;;;9.80;99.90;;;;;;4933054;29;20036;-78
2022/11/04 00:04:12;;;;;;;3.58;3.22;;;9.70;99.90;;;;;;4950291;29;20039;-78
2022/11/04 00:06:38;;;;;;;2.80;2.60;;;9.60;99.90;;;;;;4949681;29;20143;-77
2022/11/04 00:09:06;;;;;;;3.17;2.88;;;9.50;99.90;;;;;;4932856;29;20035;-78
2022/11/04 00:14:18;;;;;;;5.50;3.33;;;9.50;99.90;;;;;;4950324;29;20040;-77
2022/11/04 00:28:41;;;;;;;3.30;3.00;;;9.50;99.90;;;;;;4949844;29;20460;-77
2022/11/04 00:30:27;;;;;;;4.38;3.25;;;9.40;99.90;;;;;;4949703;29;20042;-77
2022/11/04 00:35:37;;;;;;;7.50;4.15;;;9.20;99.90;;;;;;4949250;29;20040;-77
2022/11/04 00:38:03;;;;;;;3.53;2.88;;;9.10;99.90;;;;;;4931905;29;20445;-77
2022/11/04 00:40:29;;;;;;;8.40;3.30;;;9.10;99.90;;;;;;4949178;29;20063;-78
2022/11/04 00:42:54;;;;;;;13.65;4.03;;;9.20;99.90;;;;;;4948943;29;20096;-77
2022/11/04 00:45:21;;;;;;;5.35;2.50;;;9.20;99.90;;;;;;4949260;29;20032;-78
2022/11/04 00:47:46;;;;;;;3.95;3.65;;;9.10;99.90;;;;;;4932430;29;20064;-78
2022/11/04 00:50:12;;;;;;;6.38;3.90;;;9.00;99.90;;;;;;4949278;29;20091;-78
2022/11/04 00:52:38;;;;;;;3.97;3.20;;;9.00;99.90;;;;;;4949312;29;20027;-78
2022/11/04 00:55:04;;;;;;;2.55;2.35;;;9.10;99.90;;;;;;4948792;29;20063;-78
2022/11/04 00:57:30;;;;;;;9.25;3.83;;;9.20;99.90;;;;;;4949338;29;20039;-77
2022/11/04 00:59:56;;;;;;;9.68;6.03;;;9.20;99.90;;;;;;4916283;29;20488;-77
2022/11/04 01:02:22;;;;;;;4.18;3.80;;;9.20;99.90;;;;;;4932001;29;20095;-78
2022/11/04 01:04:48;;;;;;;3.50;3.20;;;9.20;99.90;;;;;;4949112;29;20039;-79
2022/11/04 01:07:13;;;;;;;3.58;3.28;;;9.20;99.90;;;;;;4915667;29;20049;-79
2022/11/04 01:09:39;;;;;;;13.00;3.08;;;9.20;99.90;;;;;;4949112;29;20115;-78
2022/11/04 01:12:05;;;;;;;6.85;3.42;;;9.20;99.90;;;;;;4949029;29;20043;-77
2022/11/04 01:14:31;;;;;;;1.98;1.83;;;9.20;99.90;;;;;;4948886;29;20039;-77
2022/11/04 01:16:56;;;;;;;7.20;4.22;;;9.20;99.90;;;;;;4931237;29;20063;-78
2022/11/04 01:19:22;;;;;;;3.28;2.60;;;9.20;99.90;;;;;;4948827;29;20032;-78
2022/11/04 01:21:51;;;;;;;4.22;2.63;;;9.20;99.90;;;;;;4948800;29;20046;-77
2022/11/04 01:24:18;;;;;;;6.22;1.92;;;9.10;99.90;;;;;;4915842;29;20051;-78
2022/11/04 01:26:44;;;;;;;2.72;1.70;;;9.10;99.90;;;;;;4948249;29;20495;-77
2022/11/04 01:29:09;;;;;;;4.28;2.20;;;9.00;99.90;;;;;;4931514;29;20036;-77
2022/11/04 01:31:35;;;;;;;1.90;1.80;;;8.90;99.90;;;;;;4948564;29;20028;-78
2022/11/04 01:34:01;;;;;;;6.13;2.35;;;8.90;99.90;;;;;;4948643;29;20032;-78
2022/11/04 01:36:27;;;;;;;2.72;1.83;;;8.80;99.90;;;;;;4948298;29;20032;-78
2022/11/04 01:38:56;;;;;;;2.17;1.98;;;8.90;99.90;;;;;;4931100;29;20051;-79
2022/11/04 01:41:28;;;;;;;2.80;2.58;;;8.90;99.90;;;;;;4929619;29;20064;-77
2022/11/04 01:43:58;;;;;;;2.45;1.67;;;8.80;99.90;;;;;;4912272;29;20084;-77
2022/11/04 01:46:53;;;;;;;8.65;2.83;;;8.70;99.90;;;;;;4916532;29;20031;-78
2022/11/04 01:49:28;;;;;;;4.47;2.05;;;8.70;99.90;;;;;;4899639;29;20043;-77
2022/11/04 01:52:13;;;;;;;6.55;2.85;;;8.70;99.90;;;;;;4931252;29;20032;-77
2022/11/04 01:54:41;;;;;;;5.80;1.98;;;8.70;99.90;;;;;;4948167;29;20032;-77
2022/11/04 01:57:13;;;;;;;2.45;2.10;;;8.70;99.90;;;;;;4931187;29;20028;-77
2022/11/04 01:59:40;;;;;;;1.88;1.42;;;8.70;99.90;;;;;;4948356;29;20035;-77
2022/11/04 02:02:06;;;;;;;3.85;1.95;;;8.60;99.90;;;;;;4915272;29;20043;-77
2022/11/04 02:04:33;;;;;;;6.28;2.70;;;8.60;99.90;;;;;;4915309;29;20032;-78
2022/11/04 02:07:02;;;;;;;2.22;1.38;;;8.60;99.90;;;;;;4948017;29;20039;-77
2022/11/04 02:09:30;;;;;;;4.40;3.08;;;8.50;99.90;;;;;;4948180;29;20030;-77
2022/11/04 02:14:41;;;;;;;5.75;2.22;;;8.50;99.90;;;;;;4948230;29;20091;-78
2022/11/04 02:17:22;;;;;;;3.10;2.83;;;8.40;99.90;;;;;;4930807;29;20032;-78
2022/11/04 02:19:51;;;;;;;7.38;2.15;;;8.40;99.90;;;;;;4948154;29;20064;-77
2022/11/04 02:22:59;;;;;;;3.05;2.20;;;8.40;99.90;;;;;;4931038;29;20424;-78
2022/11/04 02:25:46;;;;;;;3.45;2.30;;;8.40;99.90;;;;;;4948259;29;20116;-77
2022/11/04 02:28:35;;;;;;;3.10;2.63;;;8.30;99.90;;;;;;4947518;29;20051;-77
2022/11/04 02:31:07;;;;;;;5.90;2.60;;;8.40;99.90;;;;;;4938009;29;20068;-77
2022/11/04 02:33:38;;;;;;;8.70;2.55;;;8.40;99.90;;;;;;4948261;29;20028;-77
2022/11/04 02:36:17;;;;;;;4.82;1.88;;;8.40;99.90;;;;;;4947803;29;20058;-77
2022/11/04 02:39:26;;;;;;;3.20;1.92;;;8.50;99.90;;;;;;4930547;29;20339;-77
2022/11/04 02:42:03;;;;;;;7.97;2.25;;;8.50;99.90;;;;;;4876544;29;20516;-77
2022/11/04 02:44:39;;;;;;;3.75;1.90;;;8.60;99.90;;;;;;4913174;29;20386;-77
2022/11/04 02:47:19;;;;;;;2.83;2.05;;;8.60;99.90;;;;;;4947472;29;20085;-77
2022/11/04 02:49:54;;;;;;;2.83;1.92;;;8.70;99.90;;;;;;4947719;29;20061;-77
2022/11/04 02:52:40;;;;;;;7.35;2.83;;;8.70;99.90;;;;;;4930755;29;20032;-78
2022/11/04 02:55:26;;;;;;;4.63;2.75;;;8.90;99.90;;;;;;4947386;29;20028;-77
2022/11/04 02:57:56;;;;;;;5.93;2.45;;;8.80;99.90;;;;;;4930866;29;20110;-77
2022/11/04 03:00:22;;;;;;;;;;;8.80;99.90;;;;;;4931392;29;20062;-75
2022/11/04 03:02:52;;;;;;;7.97;3.83;;;8.90;99.90;;;;;;4947920;29;19911;-77
2022/11/04 03:05:27;;;;;;;7.13;3.38;;;8.90;99.90;;;;;;4949693;29;20086;-77
2022/11/04 03:07:56;;;;;;;3.00;2.28;;;8.90;99.90;;;;;;4934001;29;20039;-78
2022/11/04 03:10:35;;;;;;;8.13;3.80;;;8.90;99.90;;;;;;4951307;29;20038;-77
2022/11/04 03:13:07;;;;;;;8.95;4.53;;;8.90;99.90;;;;;;4933777;29;20497;-77
2022/11/04 03:15:37;;;;;;;6.07;2.60;;;8.90;99.90;;;;;;4951044;29;20028;-78
2022/11/04 03:18:38;;;;;;;2.92;2.72;;;8.80;99.90;;;;;;4933924;29;20028;-78
2022/11/04 03:21:08;;;;;;;5.40;2.30;;;8.80;99.90;;;;;;4947085;29;20039;-76
2022/11/04 03:23:34;;;;;;;3.30;2.00;;;8.80;99.90;;;;;;4950703;29;20027;-76
2022/11/04 03:26:16;;;;;;;3.40;2.80;;;8.70;99.90;;;;;;4933830;29;20043;-76
2022/11/04 03:28:50;;;;;;;6.95;2.20;;;8.60;99.90;;;;;;4934071;29;20039;-77
2022/11/04 03:31:33;;;;;;;9.10;3.60;;;8.60;99.90;;;;;;4950791;29;20397;-76
2022/11/04 03:33:59;;;;;;;7.32;2.28;;;8.40;99.90;;;;;;4950736;29;20019;-76
2022/11/04 03:36:27;;;;;;;9.60;4.30;;;8.40;99.90;;;;;;4950606;29;20099;-77
2022/11/04 03:38:52;;;;;;;5.45;2.47;;;8.40;99.90;;;;;;4930240;29;20062;-77
2022/11/04 03:41:37;;;;;;;7.45;2.45;;;8.30;99.90;;;;;;4914789;29;20056;-76
2022/11/04 03:44:03;;;;;;;6.05;2.85;;;8.30;99.90;;;;;;4931309;29;20397;-77
2022/11/04 03:46:29;;;;;;;4.75;3.05;;;8.20;99.90;;;;;;4931404;29;20040;-77
2022/11/04 03:48:56;;;;;;;5.05;4.13;;;8.20;99.90;;;;;;4930201;29;20484;-77
2022/11/04 03:51:22;;;;;;;4.45;2.08;;;8.10;99.90;;;;;;4931303;29;20032;-77
2022/11/04 03:53:48;;;;;;;7.40;2.83;;;8.10;99.90;;;;;;4910848;29;20080;-78
2022/11/04 03:56:40;;;;;;;6.15;2.88;;;8.10;99.90;;;;;;4911380;29;20037;-77
2022/11/04 03:59:24;;;;;;;5.60;2.53;;;7.90;99.90;;;;;;4912559;29;20056;-77
2022/11/04 04:01:59;;;;;;;7.10;3.05;;;7.90;99.90;;;;;;4911044;29;20078;-77
2022/11/04 04:04:36;;;;;;;14.60;5.03;;;7.80;99.90;;;;;;4923141;29;20036;-77
2022/11/04 04:07:13;;;;;;;7.07;3.95;;;7.80;99.90;;;;;;4914194;29;20107;-76
2022/11/04 04:10:00;;;;;;;14.70;3.58;;;7.80;99.90;;;;;;4929715;29;20123;-76
2022/11/04 04:12:34;;;;;;;7.47;3.55;;;7.70;99.90;;;;;;4929812;29;20044;-77
2022/11/04 04:15:12;;;;;;;7.35;3.13;;;7.60;99.90;;;;;;4930739;29;20036;-77
2022/11/04 04:18:06;;;;;;;11.27;4.28;;;7.70;99.90;;;;;;4928916;29;20047;-77
2022/11/04 04:20:36;;;;;;;8.80;4.90;;;7.60;99.90;;;;;;4928930;29;20040;-76
2022/11/04 04:28:50;;;;;;;7.10;4.03;;;7.50;99.90;;;;;;4930742;29;20055;-76
2022/11/04 04:32:04;;;;;;;12.52;4.53;;;7.40;99.90;;;;;;4930607;29;20087;-76
2022/11/04 04:34:06;;;;;;;20.40;8.05;;;7.40;99.90;;;;;;4923526;29;20402;-77
2022/11/04 04:36:44;;;;;;;24.08;9.02;;;7.30;99.90;;;;;;4929316;29;20032;-77
2022/11/04 04:45:02;;;;;;;7.20;2.67;;;7.00;99.90;;;;;;4930273;29;20051;-76
2022/11/04 04:47:42;;;;;;;2.70;1.85;;;6.90;99.90;;;;;;4930590;29;20040;-77
2022/11/04 04:50:09;;;;;;;3.92;1.83;;;6.80;99.90;;;;;;4929546;29;20056;-77
2022/11/04 04:52:41;;;;;;;14.18;2.47;;;6.70;99.90;;;;;;4930212;29;20071;-78
2022/11/04 04:55:08;;;;;;;3.72;2.08;;;6.60;99.90;;;;;;4930154;29;20028;-77
2022/11/04 04:57:34;;;;;;;6.15;2.22;;;6.70;99.90;;;;;;4930713;29;20127;-76
2022/11/04 05:00:00;;;;;;;4.65;2.83;;;6.70;99.90;;;;;;4929336;29;20043;-77
2022/11/04 05:02:26;;;;;;;13.75;3.38;;;6.70;99.90;;;;;;4930514;29;20040;-77
2022/11/04 05:04:52;;;;;;;5.88;2.50;;;6.80;99.90;;;;;;4928897;29;20069;-77
2022/11/04 05:07:18;;;;;;;1.88;1.77;;;6.90;99.90;;;;;;4929916;29;20164;-76
2022/11/04 05:09:43;;;;;;;4.80;2.97;;;6.90;99.90;;;;;;4928722;29;20043;-77
2022/11/04 05:12:09;;;;;;;4.70;2.25;;;7.10;99.90;;;;;;4929266;29;20032;-77
2022/11/04 05:14:35;;;;;;;4.10;2.78;;;7.20;99.90;;;;;;4928072;29;20057;-76
2022/11/04 05:17:01;;;;;;;7.25;3.30;;;7.30;99.90;;;;;;4911800;29;20100;-76
2022/11/04 05:19:27;;;;;;;4.90;4.45;;;7.40;99.90;;;;;;4927552;29;20040;-78
2022/11/04 05:21:53;;;;;;;4.55;3.05;;;7.40;99.90;;;;;;4933168;29;20394;-77
2022/11/04 05:24:19;;;;;;;13.15;5.50;;;7.50;99.90;;;;;;4947249;29;20059;-77
2022/11/04 05:26:45;;;;;;;16.75;4.75;;;7.50;99.90;;;;;;4911465;29;20088;-77
2022/11/04 05:29:11;;;;;;;7.63;4.32;;;7.60;99.90;;;;;;4912348;29;20032;-77
2022/11/04 05:31:37;;;;;;;5.45;3.40;;;7.70;99.90;;;;;;4913515;29;20020;-76
2022/11/04 05:34:04;;;;;;;9.35;4.32;;;7.70;99.90;;;;;;4912355;29;20115;-77
2022/11/04 05:36:32;;;;;;;6.85;4.15;;;7.70;99.90;;;;;;4920521;29;20513;-76
2022/11/04 05:38:58;;;;;;;5.18;2.33;;;7.80;99.90;;;;;;4927909;29;20067;-77
2022/11/04 05:41:27;;;;;;;2.50;2.17;;;8.30;99.90;;;;;;4925060;29;20057;-77
2022/11/04 05:43:54;;;;;;;7.07;2.83;;;7.90;99.90;;;;;;4928970;29;20047;-77
2022/11/04 05:46:20;;;;;;;6.55;3.03;;;8.00;99.90;;;;;;4926932;29;20036;-77
2022/11/04 05:48:46;;;;;;;10.15;3.05;;;8.00;99.90;;;;;;4919873;29;20031;-78
2022/11/04 05:51:14;;;;;;;5.55;2.15;;;8.10;99.90;;;;;;4946959;29;20388;-78
2022/11/04 05:53:40;;;;;;;9.23;3.20;;;8.10;99.90;;;;;;4946735;29;20020;-78
2022/11/04 05:56:07;;;;;;;5.55;3.25;;;8.10;99.90;;;;;;4917795;29;20040;-77
2022/11/04 05:58:33;;;;;;;4.63;2.80;;;8.20;99.90;;;;;;4911195;29;20036;-78
2022/11/04 06:01:28;;;;;;;11.95;5.22;;;8.20;99.90;;;;;;4927663;29;20429;-78
2022/11/04 06:03:56;;;;;;;15.85;10.13;;;8.20;99.90;;;;;;4911678;29;20028;-77
2022/11/04 06:06:23;;;;;;;44.03;22.33;;;8.20;99.90;;;;;;4927274;29;20041;-77
2022/11/04 06:08:50;;;;;;;50.83;25.80;;;8.10;99.90;;;;;;4927297;29;20019;-76
2022/11/04 06:11:17;;;;;;;27.95;17.33;;;8.10;99.90;;;;;;4906653;29;20462;-78
2022/11/04 06:13:42;;;;;;;10.77;7.15;;;8.20;99.90;;;;;;4932018;29;20027;-77
2022/11/04 06:16:08;;;;;;;17.05;6.32;;;8.20;99.90;;;;;;4908720;29;20032;-77
2022/11/04 06:18:34;;;;;;;9.00;5.75;;;8.20;99.90;;;;;;4925888;29;20047;-78
2022/11/04 06:21:24;;;;;;;16.60;8.38;;;8.20;99.90;;;;;;4929874;29;20044;-77
2022/11/04 06:23:51;;;;;;;16.08;11.00;;;8.20;99.90;;;;;;4926286;29;20490;-77
2022/11/04 06:26:17;;;;;;;16.42;12.13;;;8.30;99.90;;;;;;4928567;29;20094;-77
2022/11/04 06:28:42;;;;;;;13.85;10.35;;;8.20;99.90;;;;;;4928379;29;20084;-78
2022/11/04 06:31:10;;;;;;;14.77;6.55;;;8.20;99.90;;;;;;4912043;29;20032;-77
2022/11/04 06:33:36;;;;;;;15.32;6.97;;;8.30;99.90;;;;;;4928835;29;20032;-77
2022/11/04 06:36:03;;;;;;;18.02;9.32;;;8.30;99.90;;;;;;4929119;29;20039;-77
2022/11/04 06:38:31;;;;;;;13.15;6.45;;;8.30;99.90;;;;;;4933303;29;20409;-77
2022/11/04 06:40:57;;;;;;;5.82;4.13;;;8.20;99.90;;;;;;4951542;29;20031;-77
2022/11/04 06:43:23;;;;;;;5.25;3.28;;;8.10;99.90;;;;;;4952053;29;20038;-77
2022/11/04 06:45:56;;;;;;;4.43;3.40;;;8.00;99.90;;;;;;4952819;29;20485;-77
2022/11/04 06:48:22;;;;;;;3.72;2.97;;;8.00;99.90;;;;;;4919806;29;20038;-77
2022/11/04 06:50:48;;;;;;;5.55;3.13;;;7.90;99.90;;;;;;4936096;29;20024;-77
2022/11/04 06:53:14;;;;;;;5.15;3.58;;;7.90;99.90;;;;;;4951959;29;20032;-77
2022/11/04 06:55:40;;;;;;;6.05;3.15;;;7.80;99.90;;;;;;4935372;29;20036;-77
2022/11/04 06:58:05;;;;;;;2.95;2.58;;;7.80;99.90;;;;;;4952316;29;20028;-77
2022/11/04 07:00:31;;;;;;;9.15;3.15;;;7.70;99.90;;;;;;4952815;29;20077;-76
2022/11/04 07:02:57;;;;;;;3.25;2.35;;;7.80;99.90;;;;;;4934934;29;20551;-76
2022/11/04 07:05:23;;;;;;;4.45;2.50;;;7.80;99.90;;;;;;4952358;29;20032;-77
2022/11/04 07:07:49;;;;;;;5.43;3.90;;;7.80;99.90;;;;;;4952063;29;20104;-76
2022/11/04 07:10:16;;;;;;;7.85;2.88;;;7.80;99.90;;;;;;4952364;29;20095;-77
2022/11/04 07:12:42;;;;;;;3.05;2.75;;;7.90;99.90;;;;;;4952466;29;20075;-76
2022/11/04 07:15:08;;;;;;;7.47;3.63;;;8.10;99.90;;;;;;4935032;29;20078;-77
2022/11/04 07:17:34;;;;;;;6.35;2.47;;;8.30;99.90;;;;;;4952638;29;20056;-76
2022/11/04 07:19:59;;;;;;;6.30;3.13;;;8.40;99.90;;;;;;4935102;29;20024;-77
2022/11/04 07:22:25;;;;;;;6.43;4.32;;;8.60;99.90;;;;;;4933719;29;20086;-78
2022/11/04 07:24:51;;;;;;;11.20;4.22;;;8.60;99.90;;;;;;4933828;29;20046;-77
2022/11/04 07:27:17;;;;;;;11.48;4.10;;;8.80;99.90;;;;;;4933548;29;20465;-77
2022/11/04 07:29:43;;;;;;;3.80;2.92;;;8.90;99.90;;;;;;4951063;29;20027;-77
2022/11/04 07:32:09;;;;;;;5.20;3.63;;;9.00;99.90;;;;;;4933073;29;20019;-77
2022/11/04 07:34:34;;;;;;;6.30;2.90;;;9.10;99.90;;;;;;4950924;29;20060;-77
2022/11/04 07:37:00;;;;;;;2.55;1.80;;;9.20;99.90;;;;;;4933800;29;20032;-78
2022/11/04 07:39:26;;;;;;;3.55;3.35;;;9.20;99.90;;;;;;4933494;29;20075;-77
2022/11/04 07:41:51;;;;;;;8.73;3.35;;;9.30;99.90;;;;;;4932789;29;20068;-76
2022/11/04 07:44:17;;;;;;;7.45;3.65;;;9.30;99.90;;;;;;4950860;29;20040;-77
2022/11/04 07:46:43;;;;;;;9.00;3.83;;;9.50;99.90;;;;;;4932947;29;20043;-77
2022/11/04 07:49:09;;;;;;;4.35;3.30;;;9.70;99.90;;;;;;4950696;29;20035;-77
2022/11/04 07:51:34;;;;;;;4.55;3.90;;;9.90;99.90;;;;;;4933576;29;20043;-77
2022/11/04 07:54:00;;;;;;;4.72;3.92;;;10.20;99.90;;;;;;4949879;29;20032;-77
2022/11/04 07:56:26;;;;;;;4.72;3.45;;;10.40;99.90;;;;;;4950452;29;20067;-77
2022/11/04 07:58:52;;;;;;;5.20;3.28;;;10.40;99.90;;;;;;4917540;29;20039;-77
2022/11/04 08:01:22;;;;;;;6.97;5.03;;;10.50;99.90;;;;;;4950441;29;20126;-77
2022/11/04 08:03:49;;;;;;;4.40;3.97;;;10.40;99.90;;;;;;4949901;29;20031;-77
2022/11/04 08:06:16;;;;;;;7.57;4.03;;;10.30;99.90;;;;;;4950510;29;20028;-77
2022/11/04 08:08:43;;;;;;;4.00;3.05;;;10.20;99.90;;;;;;4933187;29;20088;-77
2022/11/04 08:11:12;;;;;;;4.38;2.63;;;10.10;99.90;;;;;;4950198;29;20432;-77
2022/11/04 08:13:38;;;;;;;3.05;2.47;;;10.10;99.90;;;;;;4932795;29;20042;-77
2022/11/04 08:16:08;;;;;;;4.22;2.72;;;10.20;99.90;;;;;;4933138;29;20039;-77
2022/11/04 08:18:34;;;;;;;3.80;3.40;;;10.10;99.90;;;;;;4949725;29;20453;-77
2022/11/04 08:21:01;;;;;;;6.25;2.63;;;10.20;99.90;;;;;;4949969;29;20038;-78
2022/11/04 08:23:27;;;;;;;6.80;3.03;;;10.10;99.90;;;;;;4932254;29;20449;-78
2022/11/04 08:25:53;;;;;;;5.72;3.42;;;10.10;99.90;;;;;;4949653;29;20034;-76
2022/11/04 08:28:19;;;;;;;6.20;2.97;;;10.00;99.90;;;;;;4949772;29;20024;-77
2022/11/04 08:31:01;;;;;;;5.82;3.22;;;9.90;99.90;;;;;;4949849;29;20031;-77
2022/11/04 08:33:29;;;;;;;4.60;2.92;;;9.90;99.90;;;;;;4949477;29;20036;-78
2022/11/04 08:35:59;;;;;;;5.22;2.78;;;9.80;99.90;;;;;;4949696;29;20052;-77
2022/11/04 08:38:25;;;;;;;4.38;2.85;;;10.00;99.90;;;;;;4949470;29;20051;-77
2022/11/04 08:40:51;;;;;;;2.92;2.72;;;10.00;99.90;;;;;;4932412;29;20027;-77
2022/11/04 08:43:17;;;;;;;5.07;1.95;;;10.10;99.90;;;;;;4949065;29;20040;-77
2022/11/04 08:45:45;;;;;;;6.28;4.57;;;10.00;99.90;;;;;;4949565;29;20032;-78
2022/11/04 08:48:12;;;;;;;3.17;2.22;;;10.10;99.90;;;;;;4949409;29;20027;-77
2022/11/04 08:50:38;;;;;;;3.88;2.50;;;10.10;99.90;;;;;;4949451;29;20024;-78
2022/11/04 08:53:05;;;;;;;4.43;3.38;;;10.10;99.90;;;;;;4949217;29;20051;-78
2022/11/04 08:55:31;;;;;;;2.10;2.00;;;9.90;99.90;;;;;;4949228;29;20063;-77
2022/11/04 08:57:58;;;;;;;11.40;3.28;;;10.00;99.90;;;;;;4949283;29;20047;-78
2022/11/04 09:00:24;;;;;;;8.32;4.53;;;10.00;99.90;;;;;;4949663;29;20027;-77
2022/11/04 09:02:50;;;;;;;9.30;3.53;;;10.30;99.90;;;;;;4931134;29;20028;-77
2022/11/04 09:05:16;;;;;;;5.30;3.72;;;10.50;99.90;;;;;;4949006;29;20032;-77
2022/11/04 09:07:42;;;;;;;6.28;2.72;;;10.70;99.90;;;;;;4949112;29;20046;-77
2022/11/04 09:10:09;;;;;;;3.55;3.35;;;10.90;99.90;;;;;;4949171;29;20043;-77
2022/11/04 09:12:35;;;;;;;9.80;3.25;;;11.10;99.90;;;;;;4948978;29;20027;-78
2022/11/04 09:15:02;;;;;;;12.10;3.72;;;11.20;99.90;;;;;;4932201;29;20460;-77
2022/11/04 09:17:27;;;;;;;7.75;5.43;;;11.40;99.90;;;;;;4949193;29;20057;-77
2022/11/04 09:19:53;;;;;;;7.90;3.53;;;11.50;99.90;;;;;;4932013;29;20067;-77
2022/11/04 09:22:19;;;;;;;8.45;3.03;;;11.50;99.90;;;;;;4932141;29;20095;-77
2022/11/04 09:24:45;;;;;;;10.05;3.80;;;11.40;99.90;;;;;;4949220;29;20035;-77
2022/11/04 09:27:11;;;;;;;3.20;3.00;;;11.20;99.90;;;;;;4932327;29;20036;-77
2022/11/04 09:29:36;;;;;;;2.92;2.15;;;11.30;99.90;;;;;;4948972;29;20091;-77
2022/11/04 09:32:03;;;;;;;9.35;3.53;;;11.30;99.90;;;;;;4949291;29;20031;-77
2022/11/04 09:34:29;;;;;;;6.10;3.95;;;11.00;99.90;;;;;;4931290;29;20052;-77
2022/11/04 09:36:55;;;;;;;11.23;3.85;;;11.40;99.90;;;;;;4948789;29;20027;-77
2022/11/04 09:39:22;;;;;;;10.38;3.83;;;11.80;99.90;;;;;;4928285;29;20055;-78
2022/11/04 09:42:08;;;;;;;9.38;2.50;;;12.40;99.90;;;;;;4929376;29;20605;-77
2022/11/04 09:44:43;;;;;;;4.50;2.40;;;12.90;99.90;;;;;;4909404;29;20064;-78
2022/11/04 09:47:10;;;;;;;5.70;3.45;;;13.10;99.90;;;;;;4910627;29;20047;-77
2022/11/04 09:49:41;;;;;;;5.53;3.25;;;13.20;99.90;;;;;;4909333;29;20032;-77
2022/11/04 09:52:16;;;;;;;4.72;4.10;;;13.10;99.90;;;;;;4910516;29;20043;-77
2022/11/04 09:54:49;;;;;;;4.97;3.10;;;12.90;99.90;;;;;;4910623;29;20390;-77
2022/11/04 09:57:18;;;;;;;6.70;3.15;;;13.00;99.90;;;;;;4910694;29;20028;-78
2022/11/04 09:59:45;;;;;;;3.72;2.35;;;13.00;99.90;;;;;;4910501;29;20069;-77
2022/11/04 10:02:29;;;;;;;7.93;3.00;;;12.90;99.90;;;;;;4910639;29;20450;-78
2022/11/04 10:05:11;;;;;;;4.50;2.95;;;12.90;99.90;;;;;;4929392;29;20119;-77
2022/11/04 10:07:58;;;;;;;5.50;2.33;;;12.80;99.90;;;;;;4929348;29;20393;-78
2022/11/04 10:10:33;;;;;;;3.85;2.03;;;12.70;99.90;;;;;;4929298;29;20039;-75
2022/11/04 10:13:25;;;;;;;4.40;2.50;;;12.60;99.90;;;;;;4929163;29;20020;-78
2022/11/04 10:16:28;;;;;;;6.88;3.25;;;12.50;99.90;;;;;;4931186;29;20028;-75
2022/11/04 10:19:10;;;;;;;2.90;2.03;;;12.50;99.90;;;;;;4932887;29;20390;-75
2022/11/04 10:21:57;;;;;;;7.55;2.65;;;12.50;99.90;;;;;;4933172;29;20119;-78
2022/11/04 10:24:47;;;;;;;3.75;1.65;;;12.40;99.90;;;;;;4932787;29;20393;-78
2022/11/04 10:27:17;;;;;;;;;;;12.40;99.90;;;;;;4931847;29;20433;-76
2022/11/04 10:29:47;;;;;;;5.60;2.25;;;12.40;99.90;;;;;;4932878;29;19911;-77
2022/11/04 10:32:18;;;;;;;5.60;2.40;;;12.40;99.90;;;;;;4931863;29;20036;-77
2022/11/04 10:34:59;;;;;;;10.35;3.17;;;12.40;99.90;;;;;;4913959;29;20386;-77
2022/11/04 10:37:26;;;;;;;5.70;2.83;;;12.50;99.90;;;;;;4912748;29;20036;-77
2022/11/04 10:40:00;;;;;;;2.78;2.42;;;12.50;99.90;;;;;;4928245;29;20390;-77
2022/11/04 10:42:25;;;;;;;3.15;2.63;;;12.60;99.90;;;;;;4934101;29;20036;-77
2022/11/04 10:44:52;;;;;;;4.28;2.70;;;12.70;99.90;;;;;;4951873;29;20123;-77
2022/11/04 10:47:18;;;;;;;7.72;2.72;;;12.80;99.90;;;;;;4951458;29;20031;-77
2022/11/04 10:50:11;;;;;;;2.30;2.15;;;12.80;99.90;;;;;;4935231;29;20059;-77
2022/11/04 10:52:38;;;;;;;8.82;3.30;;;12.80;99.90;;;;;;4951466;29;20035;-77
2022/11/04 10:55:38;;;;;;;11.55;3.50;;;12.90;99.90;;;;;;4933888;29;20099;-77
2022/11/04 10:58:11;;;;;;;;;;;12.90;99.90;;;;;;4934030;29;20111;-75
2022/11/04 11:00:39;;;;;;;5.15;3.95;;;12.80;99.90;;;;;;4934418;29;19915;-78
2022/11/04 11:03:25;;;;;;;6.57;4.80;;;12.70;99.90;;;;;;4933869;29;20027;-77
2022/11/04 11:05:52;;;;;;;5.40;4.70;;;12.50;99.90;;;;;;4933979;29;20038;-77
2022/11/04 11:08:31;;;;;;;5.93;4.78;;;12.40;99.90;;;;;;4951138;29;20038;-77
2022/11/04 11:10:57;;;;;;;6.25;4.03;;;12.40;99.90;;;;;;4951465;29;20055;-78
2022/11/04 11:13:33;;;;;;;9.25;4.30;;;12.50;99.90;;;;;;4951018;29;20027;-76
2022/11/04 11:16:17;;;;;;;5.88;4.05;;;12.80;99.90;;;;;;4933671;29;20036;-77
2022/11/04 11:18:43;;;;;;;4.82;3.88;;;13.40;99.90;;;;;;4950101;29;20051;-77
2022/11/04 11:21:17;;;;;;;8.13;4.63;;;13.80;99.90;;;;;;4950895;29;20039;-77
2022/11/04 11:23:50;;;;;;;4.32;3.75;;;14.30;99.90;;;;;;4933619;29;20032;-77
2022/11/04 11:26:27;;;;;;;4.45;3.92;;;15.00;99.90;;;;;;4949825;29;20440;-77
2022/11/04 11:28:56;;;;;;;2.75;2.25;;;15.30;99.90;;;;;;4950816;29;20094;-77
2022/11/04 11:31:25;;;;;;;6.47;4.43;;;15.50;99.90;;;;;;4933539;29;20051;-77
2022/11/04 11:33:58;;;;;;;7.60;4.00;;;15.40;99.90;;;;;;4950612;29;20032;-76
2022/11/04 11:36:27;;;;;;;7.20;5.97;;;15.40;99.90;;;;;;4948808;29;20122;-77
2022/11/04 11:38:58;;;;;;;9.45;5.90;;;15.40;99.90;;;;;;4950317;29;20115;-77
2022/11/04 11:41:30;;;;;;;9.50;5.40;;;15.40;99.90;;;;;;4950313;29;20042;-77
2022/11/04 11:44:05;;;;;;;4.80;4.30;;;15.20;99.90;;;;;;4950426;29;20064;-76
2022/11/04 11:46:34;;;;;;;5.65;4.65;;;15.20;99.90;;;;;;4931088;29;20040;-77
2022/11/04 11:49:02;;;;;;;7.70;3.63;;;15.30;99.90;;;;;;4931460;29;20031;-77
2022/11/04 11:51:33;;;;;;;12.50;4.00;;;15.20;99.90;;;;;;4931210;29;20046;-77
2022/11/04 11:54:42;;;;;;;5.47;4.53;;;15.60;99.90;;;;;;4931245;29;20481;-77
2022/11/04 11:57:35;;;;;;;5.18;4.45;;;16.20;99.90;;;;;;4928684;29;20096;-76
2022/11/04 12:00:08;;;;;;;6.38;5.20;;;16.70;99.90;;;;;;4931054;29;20032;-77
2022/11/04 12:02:51;;;;;;;8.40;4.72;;;17.10;99.90;;;;;;4949583;29;20032;-77
2022/11/04 12:05:22;;;;;;;10.82;4.35;;;17.20;99.90;;;;;;4949542;29;20095;-77
2022/11/04 12:07:56;;;;;;;7.75;4.47;;;17.20;99.90;;;;;;4949693;29;20035;-77
2022/11/04 12:10:39;;;;;;;5.95;3.95;;;16.70;99.90;;;;;;4950205;29;20039;-77
2022/11/04 12:13:34;;;;;;;5.47;4.80;;;16.90;99.90;;;;;;4932945;29;20099;-77
2022/11/04 12:16:17;;;;;;;5.90;4.13;;;17.00;99.90;;;;;;4949118;29;20107;-77
2022/11/04 12:19:04;;;;;;;8.70;5.95;;;16.90;99.90;;;;;;4949607;29;20046;-76
2022/11/04 12:21:56;;;;;;;6.65;4.22;;;16.90;99.90;;;;;;4949787;29;20043;-76
2022/11/04 12:24:38;;;;;;;6.47;3.17;;;16.60;99.90;;;;;;4949269;29;20090;-77
2022/11/04 12:27:22;;;;;;;4.53;3.60;;;16.20;99.90;;;;;;4931855;29;20248;-77
2022/11/04 12:30:05;;;;;;;13.27;3.95;;;16.10;99.90;;;;;;4949454;29;20103;-77
2022/11/04 12:32:53;;;;;;;7.68;3.88;;;15.50;99.90;;;;;;4932450;29;20032;-77
2022/11/04 12:35:43;;;;;;;3.92;3.25;;;15.10;99.90;;;;;;4949466;29;20035;-77
2022/11/04 12:38:27;;;;;;;3.45;3.17;;;14.50;99.90;;;;;;4931379;29;20035;-77
2022/11/04 12:41:02;;;;;;;3.17;2.97;;;14.40;99.90;;;;;;4949168;29;20047;-76
2022/11/04 12:43:56;;;;;;;8.18;4.38;;;14.00;99.90;;;;;;4949404;29;20051;-77
2022/11/04 12:46:59;;;;;;;13.60;4.07;;;13.90;99.90;;;;;;4948766;29;20039;-77
2022/11/04 12:49:42;;;;;;;6.45;3.60;;;13.60;99.90;;;;;;4949262;29;20032;-76
2022/11/04 12:52:42;;;;;;;5.22;3.97;;;13.40;99.90;;;;;;4949160;29;20031;-77
2022/11/04 12:55:24;;;;;;;9.90;4.57;;;13.30;99.90;;;;;;4931701;29;20072;-76
2022/11/04 12:58:21;;;;;;;16.05;9.13;;;13.20;99.90;;;;;;4949223;29;20046;-76
2022/11/04 13:00:55;;;;;;;7.75;5.70;;;13.20;99.90;;;;;;4919537;29;20057;-77
2022/11/04 13:03:30;;;;;;;6.28;5.63;;;13.00;99.90;;;;;;4916334;29;20062;-77
2022/11/04 13:06:11;;;;;;;7.63;4.13;;;13.10;99.90;;;;;;4931347;29;20032;-76
2022/11/04 13:08:54;;;;;;;7.50;5.20;;;13.20;99.90;;;;;;4948820;29;20032;-76
2022/11/04 13:11:57;;;;;;;10.77;5.05;;;13.30;99.90;;;;;;4931370;29;20032;-77
2022/11/04 13:14:30;;;;;;;8.25;4.28;;;13.60;99.90;;;;;;4948464;29;20066;-76
2022/11/04 13:16:59;;;;;;;5.50;3.60;;;13.70;99.90;;;;;;4931223;29;20024;-76
2022/11/04 13:19:42;;;;;;;7.30;3.80;;;13.80;99.90;;;;;;4948688;29;20032;-76
2022/11/04 13:22:18;;;;;;;7.45;3.85;;;13.90;99.90;;;;;;4948457;29;20050;-76
2022/11/04 13:24:50;;;;;;;7.65;3.75;;;13.90;99.90;;;;;;4948251;29;20036;-77
2022/11/04 13:27:46;;;;;;;9.00;3.60;;;14.00;99.90;;;;;;4912489;29;20036;-76
2022/11/04 13:30:21;;;;;;;7.45;2.97;;;14.10;99.90;;;;;;4919385;29;20055;-76
2022/11/04 13:33:01;;;;;;;4.30;2.58;;;14.10;99.90;;;;;;4947490;29;20023;-76
2022/11/04 13:36:09;;;;;;;7.82;3.53;;;14.00;99.90;;;;;;4937191;29;20036;-76
2022/11/04 13:38:59;;;;;;;10.68;3.35;;;14.00;99.90;;;;;;4928395;29;20039;-77
2022/11/04 13:41:44;;;;;;;3.80;3.50;;;14.10;99.90;;;;;;4948255;29;20118;-76
2022/11/04 13:44:25;;;;;;;6.18;3.55;;;14.10;99.90;;;;;;4948128;29;20042;-77
2022/11/04 13:46:54;;;;;;;4.63;3.65;;;14.10;99.90;;;;;;4931253;29;20031;-76
2022/11/04 13:49:29;;;;;;;7.22;4.90;;;14.20;99.90;;;;;;4948047;29;20040;-76
2022/11/04 13:52:08;;;;;;;6.72;3.92;;;14.20;99.90;;;;;;4948157;29;20055;-76